Time;durP1;ratioP1;P1;durP2;ratioP2;P2;SDS_P1;SDS_P2;PMS_P1;PMS_P2;Temp;Humidity;BMP_temperature;BMP_pressure;BME280_temperature;BME280_humidity;BME280_pressure;Samples;Min_cycle;Max_cycle;Signal;HPM_P1;HPM_P2
2023/07/09 00:02:16;;;;;;;8.40;4.97;;;24.80;91.70;;;;;;5049945;28;20404;-68
2023/07/09 00:04:43;;;;;;;4.73;4.23;;;24.80;91.70;;;;;;5048850;28;20420;-69
2023/07/09 00:07:27;;;;;;;5.50;4.63;;;24.80;91.90;;;;;;5050498;28;20205;-69
2023/07/09 00:09:54;;;;;;;5.30;4.37;;;24.70;91.90;;;;;;5050745;28;20835;-69
2023/07/09 00:12:20;;;;;;;5.00;4.50;;;24.70;92.40;;;;;;5049897;28;20423;-69
2023/07/09 00:14:46;;;;;;;8.60;4.57;;;24.60;93.20;;;;;;5050113;28;20409;-69
2023/07/09 00:17:25;;;;;;;4.60;4.10;;;24.50;93.90;;;;;;5050304;28;20468;-69
2023/07/09 00:19:51;;;;;;;5.77;5.10;;;24.40;94.70;;;;;;5048934;28;20201;-70
2023/07/09 00:22:18;;;;;;;5.90;4.53;;;24.30;95.70;;;;;;5049709;28;20803;-69
2023/07/09 00:24:47;;;;;;;5.10;4.23;;;24.20;96.20;;;;;;5049845;28;20916;-70
2023/07/09 00:27:15;;;;;;;5.03;4.20;;;24.10;96.80;;;;;;5048659;28;20443;-70
2023/07/09 00:29:45;;;;;;;6.03;5.30;;;24.00;97.80;;;;;;5050327;28;20437;-70
2023/07/09 00:32:20;;;;;;;9.23;5.17;;;24.10;97.20;;;;;;5049612;28;21137;-70
2023/07/09 00:34:49;;;;;;;6.93;4.70;;;24.10;96.60;;;;;;5049933;28;20474;-69
2023/07/09 00:37:20;;;;;;;6.97;4.70;;;24.10;96.90;;;;;;5049825;28;20428;-69
2023/07/09 00:39:47;;;;;;;5.80;5.30;;;24.20;96.60;;;;;;5049954;28;20452;-70
2023/07/09 00:42:18;;;;;;;6.23;5.07;;;24.20;96.30;;;;;;5049309;28;20960;-70
2023/07/09 00:44:46;;;;;;;5.40;4.83;;;24.30;96.10;;;;;;5049530;28;20417;-70
2023/07/09 00:47:26;;;;;;;5.50;4.93;;;24.30;96.00;;;;;;5049024;28;20831;-70
2023/07/09 00:50:10;;;;;;;7.00;5.13;;;24.30;96.00;;;;;;5049765;28;20412;-69
2023/07/09 00:52:47;;;;;;;7.60;4.77;;;24.30;96.10;;;;;;5049044;28;20459;-70
2023/07/09 00:55:17;;;;;;;6.70;4.40;;;24.20;96.10;;;;;;5049294;28;20439;-70
2023/07/09 00:57:45;;;;;;;5.53;4.50;;;24.30;96.20;;;;;;5049675;28;20492;-70
2023/07/09 01:00:14;;;;;;;7.23;5.43;;;24.30;96.30;;;;;;5049452;28;20866;-70
2023/07/09 01:02:46;;;;;;;6.97;5.10;;;24.30;96.30;;;;;;5047817;28;20420;-70
2023/07/09 01:05:14;;;;;;;5.43;5.00;;;24.30;96.40;;;;;;5049074;28;20468;-70
2023/07/09 01:07:40;;;;;;;7.40;4.57;;;24.30;96.40;;;;;;5049414;28;20483;-70
2023/07/09 01:10:06;;;;;;;5.97;4.97;;;24.30;96.70;;;;;;5049335;28;20520;-70
2023/07/09 01:12:32;;;;;;;7.33;4.60;;;24.20;96.70;;;;;;5048734;28;20413;-70
2023/07/09 01:14:59;;;;;;;5.83;4.83;;;24.10;97.60;;;;;;5048993;28;21164;-70
2023/07/09 01:17:27;;;;;;;6.67;5.63;;;24.10;98.40;;;;;;5046414;28;20452;-70
2023/07/09 01:19:54;;;;;;;6.93;5.90;;;24.00;98.20;;;;;;5048886;28;20811;-70
2023/07/09 01:22:22;;;;;;;5.20;4.70;;;24.10;97.70;;;;;;5048599;28;20415;-70
2023/07/09 01:24:50;;;;;;;7.10;5.20;;;24.00;98.60;;;;;;5048727;28;20409;-70
2023/07/09 01:27:19;;;;;;;5.77;5.00;;;23.90;99.10;;;;;;5049034;28;20443;-70
2023/07/09 01:29:48;;;;;;;6.70;5.40;;;23.80;99.90;;;;;;5048984;28;20939;-70
2023/07/09 01:32:19;;;;;;;6.47;5.50;;;23.70;99.90;;;;;;5048159;28;20440;-70
2023/07/09 01:34:50;;;;;;;5.10;4.60;;;23.50;99.90;;;;;;5048726;28;20495;-70
2023/07/09 01:37:22;;;;;;;5.80;5.30;;;23.30;99.90;;;;;;5047693;28;20995;-71
2023/07/09 01:39:49;;;;;;;4.87;4.47;;;23.20;99.90;;;;;;5048828;28;20528;-70
2023/07/09 01:42:17;;;;;;;5.40;4.90;;;23.10;99.90;;;;;;5048377;28;20756;-70
2023/07/09 01:44:45;;;;;;;5.90;4.90;;;23.00;99.90;;;;;;5048528;28;20524;-70
2023/07/09 01:47:11;;;;;;;6.43;4.87;;;23.00;99.90;;;;;;5048933;28;20432;-70
2023/07/09 01:49:39;;;;;;;6.23;5.10;;;22.80;99.90;;;;;;5048795;28;20420;-70
2023/07/09 01:52:08;;;;;;;5.47;4.93;;;22.90;99.90;;;;;;5048127;28;20423;-70
2023/07/09 01:54:37;;;;;;;5.80;4.90;;;22.80;99.90;;;;;;5048548;28;21232;-70
2023/07/09 01:57:36;;;;;;;5.27;4.77;;;22.70;99.90;;;;;;5048646;28;20433;-70
2023/07/09 02:00:11;;;;;;;5.50;4.90;;;22.70;99.90;;;;;;5014811;28;20500;-70
2023/07/09 02:02:42;;;;;;;8.33;5.40;;;22.70;99.90;;;;;;5048203;28;20428;-70
2023/07/09 02:05:09;;;;;;;5.73;5.10;;;22.80;99.90;;;;;;5047151;28;20930;-70
2023/07/09 02:07:35;;;;;;;5.70;5.20;;;22.80;99.90;;;;;;5048524;28;20468;-70
2023/07/09 02:10:02;;;;;;;6.10;4.97;;;22.90;99.90;;;;;;5048370;28;20455;-70
2023/07/09 02:12:28;;;;;;;5.70;5.13;;;22.80;99.90;;;;;;5047870;28;20466;-70
2023/07/09 02:14:54;;;;;;;5.40;4.50;;;22.70;99.90;;;;;;5048208;28;20420;-70
2023/07/09 02:17:19;;;;;;;5.67;5.07;;;22.60;99.90;;;;;;5048454;28;20167;-70
2023/07/09 02:19:45;;;;;;;5.90;5.10;;;22.60;99.90;;;;;;5048346;28;20209;-70
2023/07/09 02:22:11;;;;;;;5.40;4.90;;;22.50;99.90;;;;;;5047681;28;20297;-70
2023/07/09 02:24:37;;;;;;;6.13;5.43;;;22.30;99.90;;;;;;5048087;28;20189;-70
2023/07/09 02:27:05;;;;;;;5.67;4.77;;;22.20;99.90;;;;;;5048453;28;20424;-70
2023/07/09 02:29:32;;;;;;;6.63;5.73;;;22.20;99.90;;;;;;5047018;28;20654;-70
2023/07/09 02:31:59;;;;;;;5.70;5.20;;;22.20;99.90;;;;;;5048147;28;20420;-70
2023/07/09 02:34:26;;;;;;;8.33;5.97;;;22.00;99.90;;;;;;5046944;28;20944;-70
2023/07/09 02:36:53;;;;;;;7.20;5.60;;;21.90;99.90;;;;;;5048155;28;20463;-70
2023/07/09 02:39:20;;;;;;;6.00;5.40;;;21.90;99.90;;;;;;5048231;28;21012;-70
2023/07/09 02:41:46;;;;;;;6.67;4.87;;;21.80;99.90;;;;;;5048412;28;20416;-70
2023/07/09 02:44:12;;;;;;;8.87;5.93;;;21.90;99.90;;;;;;5047713;28;20404;-70
2023/07/09 02:46:37;;;;;;;6.60;5.00;;;21.80;99.90;;;;;;5047827;28;20546;-70
2023/07/09 02:49:05;;;;;;;6.90;5.63;;;21.80;99.90;;;;;;5048215;28;20765;-70
2023/07/09 02:51:31;;;;;;;6.70;5.67;;;21.70;99.90;;;;;;5048270;28;20189;-70
2023/07/09 02:53:59;;;;;;;6.27;5.50;;;21.60;99.90;;;;;;5047546;28;20946;-70
2023/07/09 02:56:25;;;;;;;7.77;6.37;;;21.50;99.90;;;;;;5046904;28;20444;-70
2023/07/09 02:58:51;;;;;;;6.23;4.97;;;21.50;99.90;;;;;;5048067;28;20415;-70
2023/07/09 03:01:17;;;;;;;8.17;5.10;;;21.40;99.90;;;;;;5048132;28;20412;-70
2023/07/09 03:03:43;;;;;;;4.87;4.40;;;21.30;99.90;;;;;;5047016;28;20515;-70
2023/07/09 03:06:10;;;;;;;6.30;5.67;;;21.40;99.90;;;;;;5047649;28;20430;-70
2023/07/09 03:08:35;;;;;;;6.33;5.40;;;21.30;99.90;;;;;;5048294;28;20697;-70
2023/07/09 03:11:09;;;;;;;7.33;5.53;;;21.30;99.90;;;;;;5051719;28;20412;-70
2023/07/09 03:13:35;;;;;;;6.40;5.27;;;21.30;99.90;;;;;;5049694;28;20176;-70
2023/07/09 03:16:01;;;;;;;6.10;5.10;;;21.30;99.90;;;;;;5051246;28;21002;-70
2023/07/09 03:18:26;;;;;;;6.40;5.80;;;21.30;99.90;;;;;;5051394;28;20257;-70
2023/07/09 03:20:52;;;;;;;7.37;5.67;;;21.30;99.90;;;;;;5051496;28;20413;-70
2023/07/09 03:23:18;;;;;;;7.70;6.17;;;21.40;99.90;;;;;;5050726;28;20255;-70
2023/07/09 03:25:44;;;;;;;5.93;5.20;;;21.40;99.90;;;;;;5050999;28;20482;-70
2023/07/09 03:28:11;;;;;;;7.27;5.70;;;21.30;99.90;;;;;;5033333;28;20174;-70
2023/07/09 03:30:47;;;;;;;6.67;5.27;;;21.20;99.90;;;;;;5051335;28;20416;-69
2023/07/09 03:33:15;;;;;;;7.80;5.87;;;21.10;99.90;;;;;;5050655;28;20411;-70
2023/07/09 03:35:41;;;;;;;8.60;5.77;;;21.00;99.90;;;;;;5050832;28;20546;-70
2023/07/09 03:38:08;;;;;;;6.10;5.57;;;21.00;99.90;;;;;;5051353;28;20921;-70
2023/07/09 03:40:34;;;;;;;6.30;5.43;;;20.90;99.90;;;;;;5051051;28;20973;-70
2023/07/09 03:43:00;;;;;;;5.90;5.30;;;20.90;99.90;;;;;;5047757;28;20424;-70
2023/07/09 03:45:26;;;;;;;7.37;5.93;;;21.00;99.90;;;;;;5050245;28;20446;-70
2023/07/09 03:47:52;;;;;;;6.40;5.50;;;20.90;99.90;;;;;;5050927;28;20473;-70
2023/07/09 03:50:18;;;;;;;6.57;5.87;;;20.90;99.90;;;;;;5050956;28;20213;-70
2023/07/09 03:52:44;;;;;;;6.73;5.70;;;21.00;99.90;;;;;;5050207;28;20178;-70
2023/07/09 03:55:10;;;;;;;8.43;5.47;;;21.00;99.90;;;;;;5048576;28;20427;-70
2023/07/09 03:57:35;;;;;;;5.90;5.30;;;21.00;99.90;;;;;;5050851;28;20354;-70
2023/07/09 04:00:04;;;;;;;6.30;5.70;;;21.00;99.90;;;;;;5050648;28;20202;-70
2023/07/09 04:02:31;;;;;;;6.20;5.60;;;20.90;99.90;;;;;;5050068;28;20177;-70
2023/07/09 04:04:56;;;;;;;6.00;5.50;;;20.90;99.90;;;;;;5050219;28;20413;-70
2023/07/09 04:07:23;;;;;;;7.73;5.73;;;20.90;99.90;;;;;;5050551;28;20413;-70
2023/07/09 04:09:48;;;;;;;8.23;6.10;;;20.80;99.90;;;;;;5050628;28;20189;-70
2023/07/09 04:12:14;;;;;;;8.80;6.07;;;20.80;99.90;;;;;;5049947;28;21059;-70
2023/07/09 04:14:43;;;;;;;6.27;5.70;;;21.00;99.90;;;;;;5050075;28;20762;-70
2023/07/09 04:17:09;;;;;;;6.60;6.00;;;21.00;99.90;;;;;;5050259;28;20272;-70
2023/07/09 04:19:34;;;;;;;7.97;6.43;;;21.10;99.90;;;;;;5050249;28;20572;-70
2023/07/09 04:22:00;;;;;;;6.57;5.83;;;21.20;99.90;;;;;;5048710;28;20280;-70
2023/07/09 04:24:27;;;;;;;8.30;6.87;;;21.20;99.90;;;;;;5050134;28;20181;-70
2023/07/09 04:26:56;;;;;;;8.00;5.83;;;21.30;99.90;;;;;;5049878;28;20229;-70
2023/07/09 04:29:22;;;;;;;8.83;5.50;;;21.30;99.90;;;;;;5050161;28;20901;-70
2023/07/09 04:31:48;;;;;;;7.27;6.17;;;21.40;99.90;;;;;;5050142;28;20424;-70
2023/07/09 04:34:14;;;;;;;6.80;6.13;;;21.40;99.90;;;;;;5049414;28;20412;-70
2023/07/09 04:36:40;;;;;;;7.20;5.60;;;21.50;99.90;;;;;;5049594;28;20217;-70
2023/07/09 04:39:06;;;;;;;6.87;6.17;;;21.60;99.90;;;;;;5050033;28;20460;-70
2023/07/09 04:41:33;;;;;;;8.80;5.90;;;21.60;99.90;;;;;;5050031;28;20268;-70
2023/07/09 04:43:59;;;;;;;7.57;6.07;;;21.60;99.90;;;;;;5049384;28;20208;-70
2023/07/09 04:46:24;;;;;;;7.13;5.90;;;21.60;99.90;;;;;;5049573;28;20448;-70
2023/07/09 04:48:50;;;;;;;6.97;5.83;;;21.60;99.90;;;;;;5048598;28;20404;-70
2023/07/09 04:51:17;;;;;;;7.53;5.40;;;21.70;99.90;;;;;;5049503;28;20209;-69
2023/07/09 04:53:43;;;;;;;8.10;6.40;;;21.70;99.90;;;;;;5049369;28;20169;-70
2023/07/09 04:56:09;;;;;;;7.90;6.40;;;21.70;99.90;;;;;;5048167;28;20870;-70
2023/07/09 04:58:35;;;;;;;6.70;6.00;;;21.80;99.90;;;;;;5049693;28;20416;-70
2023/07/09 05:01:01;;;;;;;6.93;6.23;;;21.80;99.90;;;;;;5049399;28;20456;-70
2023/07/09 05:03:27;;;;;;;8.97;6.80;;;21.90;99.90;;;;;;5049097;28;20888;-70
2023/07/09 05:05:53;;;;;;;8.80;6.20;;;22.00;99.90;;;;;;5049113;28;20198;-70
2023/07/09 05:08:18;;;;;;;7.57;6.77;;;22.10;99.90;;;;;;5049420;28;20242;-70
2023/07/09 05:10:49;;;;;;;7.30;6.60;;;22.30;99.90;;;;;;5049407;28;20339;-70
2023/07/09 05:13:15;;;;;;;6.60;5.90;;;22.40;99.90;;;;;;5048931;28;20216;-70
2023/07/09 05:15:44;;;;;;;8.60;6.37;;;22.40;99.90;;;;;;5049082;28;20436;-70
2023/07/09 05:18:11;;;;;;;9.47;6.97;;;22.50;99.90;;;;;;5049342;28;20408;-70
2023/07/09 05:20:37;;;;;;;7.17;6.13;;;22.60;99.90;;;;;;5047977;28;20976;-70
2023/07/09 05:23:03;;;;;;;6.90;6.20;;;22.70;99.90;;;;;;5048599;28;20415;-70
2023/07/09 05:25:29;;;;;;;8.30;6.00;;;22.80;99.90;;;;;;5048627;28;20205;-69
2023/07/09 05:27:55;;;;;;;6.63;5.93;;;22.90;99.90;;;;;;5049161;28;20504;-69
2023/07/09 05:30:21;;;;;;;8.93;5.90;;;23.10;99.90;;;;;;5049042;28;20433;-69
2023/07/09 05:32:47;;;;;;;8.43;6.30;;;23.10;99.90;;;;;;5048168;28;20193;-69
2023/07/09 05:35:14;;;;;;;6.73;6.10;;;23.20;99.90;;;;;;5048629;28;20543;-69
2023/07/09 05:37:40;;;;;;;7.63;6.93;;;23.20;99.90;;;;;;5049029;28;20424;-69
2023/07/09 05:40:07;;;;;;;7.90;5.70;;;23.40;99.90;;;;;;5048934;28;20460;-69
2023/07/09 05:42:33;;;;;;;8.10;6.17;;;23.50;99.90;;;;;;5048301;28;20781;-69
2023/07/09 05:44:58;;;;;;;8.83;6.27;;;23.60;99.90;;;;;;5048494;28;20408;-70
2023/07/09 05:47:25;;;;;;;8.00;5.70;;;23.60;99.90;;;;;;5049007;28;20185;-69
2023/07/09 05:49:52;;;;;;;6.10;5.50;;;23.80;99.90;;;;;;5049209;28;20273;-69
2023/07/09 05:52:20;;;;;;;9.37;7.40;;;23.90;99.90;;;;;;5048068;28;20444;-70
2023/07/09 05:54:46;;;;;;;7.27;6.03;;;24.00;99.90;;;;;;5046198;28;20444;-69
2023/07/09 05:57:11;;;;;;;6.93;6.23;;;24.10;99.90;;;;;;5047762;28;20443;-69
2023/07/09 05:59:37;;;;;;;8.10;6.37;;;24.20;99.90;;;;;;5048289;28;20452;-70
2023/07/09 06:02:03;;;;;;;7.80;6.10;;;24.40;99.90;;;;;;5048040;28;20180;-69
2023/07/09 06:04:30;;;;;;;9.03;5.70;;;24.50;99.90;;;;;;5044058;28;20193;-70
2023/07/09 06:06:57;;;;;;;6.10;5.57;;;24.70;99.90;;;;;;5047407;28;20432;-70
2023/07/09 06:09:22;;;;;;;7.60;6.50;;;24.70;99.90;;;;;;5048031;28;20443;-70
2023/07/09 06:11:48;;;;;;;8.50;7.30;;;24.70;99.90;;;;;;5048186;28;20431;-70
2023/07/09 06:14:16;;;;;;;8.03;6.43;;;24.70;99.90;;;;;;5047837;28;20185;-70
2023/07/09 06:16:43;;;;;;;6.73;6.13;;;24.70;99.90;;;;;;5049819;28;20213;-70
2023/07/09 06:19:09;;;;;;;8.93;6.53;;;24.80;99.90;;;;;;5047706;28;20470;-70
2023/07/09 06:21:35;;;;;;;10.37;6.47;;;24.80;99.90;;;;;;5048089;28;20416;-70
2023/07/09 06:24:00;;;;;;;6.87;6.17;;;24.80;99.90;;;;;;5046924;28;20178;-70
2023/07/09 06:26:26;;;;;;;7.17;5.97;;;24.90;99.90;;;;;;5046962;28;20204;-70
2023/07/09 06:28:52;;;;;;;6.33;5.70;;;24.90;99.90;;;;;;5048035;28;20203;-70
2023/07/09 06:31:20;;;;;;;7.27;6.23;;;24.90;99.90;;;;;;5048036;28;20188;-70
2023/07/09 06:33:47;;;;;;;9.87;6.57;;;25.00;99.90;;;;;;5047694;28;20182;-70
2023/07/09 06:36:13;;;;;;;7.73;6.47;;;25.00;99.90;;;;;;5047703;28;20435;-70
2023/07/09 06:38:38;;;;;;;10.17;6.47;;;25.10;99.90;;;;;;5047975;28;20653;-70
2023/07/09 06:41:04;;;;;;;9.57;6.57;;;25.20;99.90;;;;;;5046729;28;20213;-70
2023/07/09 06:43:31;;;;;;;7.10;6.40;;;25.30;99.90;;;;;;5047305;28;20209;-70
2023/07/09 06:46:01;;;;;;;8.17;6.40;;;25.30;99.90;;;;;;5051517;28;20612;-70
2023/07/09 06:48:28;;;;;;;7.30;5.93;;;25.40;99.90;;;;;;5050502;28;20412;-70
2023/07/09 06:50:56;;;;;;;6.73;5.93;;;25.50;99.90;;;;;;5050598;28;20443;-70
2023/07/09 06:53:22;;;;;;;7.60;5.90;;;25.50;99.90;;;;;;5051121;28;20420;-70
2023/07/09 06:55:55;;;;;;;11.30;6.30;;;25.60;99.90;;;;;;5050757;28;20448;-70
2023/07/09 06:58:22;;;;;;;6.53;5.90;;;25.70;99.90;;;;;;5049657;28;20431;-70
2023/07/09 07:00:51;;;;;;;6.77;6.07;;;25.70;99.90;;;;;;5049265;28;21040;-70
2023/07/09 07:03:17;;;;;;;8.57;6.20;;;25.80;99.90;;;;;;5047248;28;20485;-70
2023/07/09 07:05:44;;;;;;;7.27;6.00;;;25.90;99.90;;;;;;5049556;28;20448;-70
2023/07/09 07:08:12;;;;;;;7.20;6.30;;;26.00;99.90;;;;;;5047262;28;20463;-70
2023/07/09 07:10:39;;;;;;;10.17;6.60;;;26.10;99.90;;;;;;5051057;28;20490;-70
2023/07/09 07:13:04;;;;;;;8.60;6.70;;;26.10;99.90;;;;;;5050689;28;21004;-70
2023/07/09 07:15:30;;;;;;;12.30;6.63;;;26.20;99.90;;;;;;5050530;28;20613;-70
2023/07/09 07:17:56;;;;;;;6.50;5.87;;;26.20;99.90;;;;;;5051457;28;20804;-70
2023/07/09 07:20:22;;;;;;;7.67;6.20;;;26.30;99.90;;;;;;5049997;28;20213;-69
2023/07/09 07:22:47;;;;;;;7.97;6.87;;;26.40;99.90;;;;;;5050721;28;20190;-70
2023/07/09 07:25:13;;;;;;;8.33;6.50;;;26.40;99.90;;;;;;5050946;28;20199;-70
2023/07/09 07:27:39;;;;;;;7.63;6.00;;;26.50;99.90;;;;;;5051359;28;20209;-70
2023/07/09 07:30:08;;;;;;;8.23;6.53;;;26.60;99.90;;;;;;5051376;28;20182;-70
2023/07/09 07:32:36;;;;;;;9.00;6.40;;;26.70;99.90;;;;;;5050780;28;20186;-70
2023/07/09 07:35:02;;;;;;;7.80;6.90;;;26.70;99.90;;;;;;5048175;28;20516;-70
2023/07/09 07:37:28;;;;;;;9.80;6.83;;;26.80;99.90;;;;;;5050986;28;21003;-70
2023/07/09 07:39:54;;;;;;;8.53;6.53;;;26.90;99.90;;;;;;5050623;28;20221;-70
2023/07/09 07:42:19;;;;;;;8.67;7.00;;;27.00;99.90;;;;;;5076876;28;20188;-70
2023/07/09 07:44:45;;;;;;;9.47;7.03;;;27.00;99.90;;;;;;5074292;28;20178;-70
2023/07/09 07:47:11;;;;;;;7.93;7.13;;;27.10;99.90;;;;;;5050468;28;20239;-70
2023/07/09 07:49:37;;;;;;;7.33;6.47;;;27.20;99.90;;;;;;5050414;28;20268;-70
2023/07/09 07:52:03;;;;;;;9.57;6.87;;;27.30;99.90;;;;;;5048739;28;20901;-70
2023/07/09 07:54:31;;;;;;;7.97;6.83;;;27.30;99.90;;;;;;5050165;28;20408;-70
2023/07/09 07:56:58;;;;;;;8.47;7.07;;;27.40;99.90;;;;;;5047299;28;20964;-70
2023/07/09 07:59:24;;;;;;;10.13;7.50;;;27.40;99.90;;;;;;5030534;28;20899;-70
2023/07/09 08:01:49;;;;;;;9.03;7.20;;;27.50;99.90;;;;;;5030914;28;20773;-70
2023/07/09 08:04:15;;;;;;;7.77;6.80;;;27.60;99.90;;;;;;5029929;28;20413;-70
2023/07/09 08:06:41;;;;;;;7.50;6.70;;;27.60;99.90;;;;;;5030584;28;20222;-70
2023/07/09 08:09:07;;;;;;;10.17;6.83;;;27.70;99.90;;;;;;5030680;28;20448;-70
2023/07/09 08:11:34;;;;;;;8.33;7.53;;;27.70;99.90;;;;;;5029564;28;20420;-70
2023/07/09 08:14:00;;;;;;;12.40;7.53;;;27.80;99.90;;;;;;5030236;28;20610;-70
2023/07/09 08:16:26;;;;;;;7.87;7.03;;;27.80;99.70;;;;;;5040005;28;20476;-70
2023/07/09 08:18:52;;;;;;;8.03;7.20;;;27.80;99.90;;;;;;5050266;28;20459;-70
2023/07/09 08:21:18;;;;;;;7.83;6.77;;;27.80;99.90;;;;;;5050722;28;20877;-70
2023/07/09 08:23:45;;;;;;;9.40;7.70;;;27.80;99.90;;;;;;5050011;28;20182;-70
2023/07/09 08:26:11;;;;;;;9.30;7.40;;;27.90;99.90;;;;;;5050196;28;20465;-70
2023/07/09 08:28:37;;;;;;;8.43;7.60;;;28.00;99.90;;;;;;5050375;28;20918;-70
2023/07/09 08:31:03;;;;;;;8.20;7.27;;;28.10;99.90;;;;;;5046615;28;20293;-70
2023/07/09 08:33:30;;;;;;;9.73;8.73;;;28.10;99.90;;;;;;5049081;28;20506;-70
2023/07/09 08:35:56;;;;;;;10.30;7.50;;;28.10;99.70;;;;;;5053746;28;20216;-70
2023/07/09 08:38:22;;;;;;;8.10;7.30;;;28.20;99.90;;;;;;5050302;28;20780;-70
2023/07/09 08:41:07;;;;;;;10.17;7.40;;;28.30;99.90;;;;;;5049882;28;20201;-70
2023/07/09 08:43:58;;;;;;;10.00;7.63;;;28.40;99.90;;;;;;5049533;28;20432;-71
2023/07/09 08:46:52;;;;;;;9.33;7.40;;;28.40;99.60;;;;;;5047997;28;20439;-71
2023/07/09 08:49:23;;;;;;;7.50;6.57;;;28.40;99.10;;;;;;5049485;28;20432;-70
2023/07/09 08:51:50;;;;;;;8.57;7.20;;;28.50;99.10;;;;;;5049327;28;20416;-70
2023/07/09 08:54:26;;;;;;;8.60;7.13;;;28.60;99.20;;;;;;5049124;28;20408;-70
2023/07/09 08:56:53;;;;;;;8.40;7.57;;;28.60;98.20;;;;;;5050958;28;20811;-70
2023/07/09 08:59:20;;;;;;;8.10;7.30;;;28.70;98.40;;;;;;5047147;28;20456;-71
2023/07/09 09:01:57;;;;;;;10.20;7.10;;;28.70;98.40;;;;;;5048253;28;20932;-70
2023/07/09 09:04:29;;;;;;;7.93;7.13;;;28.80;99.00;;;;;;5048682;28;20416;-70
2023/07/09 09:07:01;;;;;;;8.70;7.00;;;28.90;98.30;;;;;;5048417;28;20967;-70
2023/07/09 09:09:46;;;;;;;9.90;7.67;;;28.90;97.80;;;;;;5048867;28;21118;-70
2023/07/09 09:12:21;;;;;;;7.70;6.90;;;29.00;97.80;;;;;;5048604;28;20438;-71
2023/07/09 09:15:18;;;;;;;7.87;7.17;;;29.10;98.60;;;;;;5048827;28;20412;-70
2023/07/09 09:17:44;;;;;;;8.73;6.87;;;29.20;97.50;;;;;;5036701;28;20452;-70
2023/07/09 09:20:17;;;;;;;13.80;7.33;;;29.30;97.80;;;;;;5050342;28;20525;-70
2023/07/09 09:23:09;;;;;;;7.60;6.90;;;29.40;97.20;;;;;;5048489;28;20420;-70
2023/07/09 09:25:39;;;;;;;9.47;7.23;;;29.50;97.00;;;;;;5048009;28;20467;-70
2023/07/09 09:28:05;;;;;;;7.27;6.57;;;29.60;97.70;;;;;;5048886;28;20771;-70
2023/07/09 09:30:30;;;;;;;8.00;6.83;;;29.70;97.90;;;;;;5048582;28;20412;-71
2023/07/09 09:32:59;;;;;;;8.10;6.83;;;29.80;96.40;;;;;;5048286;28;20789;-71
2023/07/09 09:35:33;;;;;;;9.37;7.47;;;29.90;96.90;;;;;;5048072;28;20208;-71
2023/07/09 09:37:59;;;;;;;9.33;6.20;;;30.00;96.10;;;;;;5048689;28;20542;-70
2023/07/09 09:40:27;;;;;;;6.80;6.10;;;30.10;96.30;;;;;;5048455;28;20459;-71
2023/07/09 09:42:56;;;;;;;7.23;6.27;;;30.20;95.20;;;;;;5048329;28;20409;-70
2023/07/09 09:45:34;;;;;;;9.10;6.13;;;30.30;95.50;;;;;;5046799;28;20429;-70
2023/07/09 09:48:12;;;;;;;9.10;6.50;;;30.40;95.70;;;;;;5048407;28;20416;-71
2023/07/09 09:50:40;;;;;;;8.27;6.40;;;30.40;94.90;;;;;;5048450;28;20422;-70
2023/07/09 09:53:08;;;;;;;7.10;6.20;;;30.50;94.80;;;;;;5044911;28;20416;-71
2023/07/09 09:55:34;;;;;;;7.00;6.30;;;30.60;94.80;;;;;;5046686;28;21130;-70
2023/07/09 09:58:02;;;;;;;7.30;6.50;;;30.60;94.70;;;;;;5048160;28;20884;-70
2023/07/09 10:00:33;;;;;;;7.60;6.20;;;30.80;93.50;;;;;;5045197;28;20459;-70
2023/07/09 10:03:06;;;;;;;7.67;5.97;;;30.90;92.90;;;;;;5043801;28;20431;-70
2023/07/09 10:05:44;;;;;;;6.97;6.37;;;31.00;92.60;;;;;;5040484;28;20462;-70
2023/07/09 10:08:29;;;;;;;7.20;6.43;;;31.10;92.70;;;;;;5046133;28;20818;-70
2023/07/09 10:11:18;;;;;;;6.30;5.40;;;31.10;93.00;;;;;;5047251;28;20503;-70
2023/07/09 10:13:45;;;;;;;6.70;6.10;;;31.20;91.60;;;;;;5047656;28;20499;-70
2023/07/09 10:16:35;;;;;;;7.30;5.97;;;31.20;91.10;;;;;;5047765;28;20440;-70
2023/07/09 10:19:17;;;;;;;6.63;5.93;;;31.30;91.70;;;;;;5048891;28;20416;-70
2023/07/09 10:22:05;;;;;;;11.10;5.83;;;31.30;92.00;;;;;;5052151;28;20435;-70
2023/07/09 10:24:54;;;;;;;7.30;6.53;;;31.30;91.60;;;;;;5050380;28;20408;-70
2023/07/09 10:27:46;;;;;;;6.33;5.70;;;31.40;91.50;;;;;;5048153;28;20424;-70
2023/07/09 10:30:30;;;;;;;6.40;5.67;;;31.50;90.90;;;;;;5049896;28;20481;-70
2023/07/09 10:33:10;;;;;;;8.60;5.83;;;31.50;90.70;;;;;;5050776;28;20419;-70
2023/07/09 10:35:49;;;;;;;9.07;5.83;;;31.60;88.90;;;;;;5050310;28;20478;-70
2023/07/09 10:38:47;;;;;;;7.17;5.40;;;31.70;90.00;;;;;;5050502;28;20409;-70
2023/07/09 10:41:13;;;;;;;5.50;5.00;;;31.70;86.80;;;;;;5050246;28;20514;-70
2023/07/09 10:44:11;;;;;;;7.17;4.90;;;31.80;86.50;;;;;;5051163;28;20416;-70
2023/07/09 10:46:40;;;;;;;5.77;5.20;;;31.80;86.30;;;;;;5029147;28;20581;-71
2023/07/09 10:49:12;;;;;;;8.37;5.23;;;31.90;88.40;;;;;;5064539;28;20420;-71
2023/07/09 10:51:59;;;;;;;5.83;4.77;;;32.00;85.20;;;;;;5051618;28;20416;-70
2023/07/09 10:54:28;;;;;;;6.50;5.07;;;32.10;87.60;;;;;;5050211;28;20462;-71
2023/07/09 10:57:02;;;;;;;5.60;5.10;;;32.20;86.00;;;;;;5046505;28;20448;-71
2023/07/09 10:59:33;;;;;;;5.33;4.80;;;32.30;82.90;;;;;;5049035;28;20467;-71
2023/07/09 11:02:21;;;;;;;6.73;5.33;;;32.30;82.60;;;;;;5049120;28;20472;-71
2023/07/09 11:05:01;;;;;;;6.33;4.80;;;32.30;82.10;;;;;;5051291;28;20461;-71
2023/07/09 11:07:31;;;;;;;5.00;4.50;;;32.30;81.60;;;;;;5049337;28;20485;-71
2023/07/09 11:10:00;;;;;;;5.50;4.97;;;32.40;83.00;;;;;;5051590;28;20461;-71
2023/07/09 11:12:48;;;;;;;5.70;4.83;;;32.60;84.50;;;;;;5032976;28;20413;-71
2023/07/09 11:15:23;;;;;;;6.50;4.77;;;32.70;82.70;;;;;;5049590;28;20447;-71
2023/07/09 11:17:49;;;;;;;5.30;4.80;;;32.70;82.10;;;;;;5051013;28;20408;-71
2023/07/09 11:20:33;;;;;;;6.97;4.50;;;32.80;80.30;;;;;;5049604;28;20502;-71
2023/07/09 11:23:20;;;;;;;7.00;5.30;;;32.80;80.10;;;;;;5048777;28;20181;-71
2023/07/09 11:26:10;;;;;;;6.33;4.50;;;32.80;78.40;;;;;;5048503;28;20489;-71
2023/07/09 11:28:38;;;;;;;5.57;4.70;;;32.80;76.30;;;;;;5050187;28;21144;-70
2023/07/09 11:31:20;;;;;;;5.20;4.70;;;32.80;75.50;;;;;;5043214;28;20448;-71
2023/07/09 11:34:05;;;;;;;4.67;4.27;;;32.90;77.00;;;;;;5048555;28;20491;-71
2023/07/09 11:36:31;;;;;;;5.67;4.80;;;32.90;74.20;;;;;;5044444;28;20498;-71
2023/07/09 11:38:57;;;;;;;9.33;4.70;;;32.80;73.30;;;;;;5050794;28;20854;-71
2023/07/09 11:41:41;;;;;;;5.37;4.80;;;32.80;74.00;;;;;;5050832;28;20444;-71
2023/07/09 11:44:25;;;;;;;5.60;4.53;;;32.80;72.80;;;;;;5049846;28;20432;-71
2023/07/09 11:47:17;;;;;;;6.73;4.90;;;32.90;72.00;;;;;;5053068;28;20444;-70
2023/07/09 11:49:59;;;;;;;5.37;4.20;;;32.90;76.90;;;;;;5049895;28;20448;-71
2023/07/09 11:52:35;;;;;;;4.80;4.37;;;33.00;74.70;;;;;;5055830;28;20491;-71
2023/07/09 11:55:15;;;;;;;7.67;5.63;;;33.10;74.60;;;;;;5052959;28;20444;-70
2023/07/09 11:57:41;;;;;;;6.97;5.07;;;33.10;73.40;;;;;;5034000;28;20462;-71
2023/07/09 12:00:08;;;;;;;5.60;5.03;;;33.10;72.50;;;;;;5057051;28;20466;-71
2023/07/09 12:02:35;;;;;;;5.70;5.20;;;33.20;72.60;;;;;;5050719;28;20216;-71
2023/07/09 12:05:03;;;;;;;5.17;4.77;;;33.20;74.70;;;;;;5058580;28;20463;-70
2023/07/09 12:07:29;;;;;;;5.67;4.93;;;33.10;71.70;;;;;;5054817;28;21039;-71
2023/07/09 12:09:55;;;;;;;7.83;4.93;;;33.10;72.50;;;;;;5055653;28;20519;-70
2023/07/09 12:12:25;;;;;;;9.10;5.33;;;33.00;68.80;;;;;;5055667;28;20240;-71
2023/07/09 12:14:51;;;;;;;5.67;4.43;;;33.00;71.20;;;;;;5055027;28;20698;-71
2023/07/09 12:17:17;;;;;;;5.20;4.37;;;33.00;72.80;;;;;;5049146;28;20934;-71
2023/07/09 12:19:43;;;;;;;7.27;5.10;;;33.00;71.80;;;;;;5051072;28;20504;-71
2023/07/09 12:22:35;;;;;;;6.90;5.03;;;33.10;71.80;;;;;;5052796;28;20489;-70
2023/07/09 12:25:01;;;;;;;11.30;5.30;;;33.10;71.30;;;;;;5047234;28;20220;-70
2023/07/09 12:27:37;;;;;;;5.67;5.17;;;33.10;71.40;;;;;;5049705;28;20444;-70
2023/07/09 12:30:03;;;;;;;4.73;4.33;;;33.10;69.70;;;;;;5049932;28;20205;-71
2023/07/09 12:32:29;;;;;;;5.43;4.93;;;33.10;69.40;;;;;;5048720;28;20480;-70
2023/07/09 12:34:56;;;;;;;5.40;4.60;;;33.10;69.10;;;;;;5048920;28;20979;-71
2023/07/09 12:37:25;;;;;;;5.73;5.13;;;33.10;70.50;;;;;;5049654;28;20300;-70
2023/07/09 12:39:52;;;;;;;6.20;5.07;;;33.10;70.80;;;;;;5050237;28;22158;-70
2023/07/09 12:42:29;;;;;;;5.90;4.40;;;33.10;69.10;;;;;;5049157;28;20444;-71
2023/07/09 12:44:55;;;;;;;7.53;4.90;;;33.10;67.00;;;;;;5049857;28;20440;-71
2023/07/09 12:47:24;;;;;;;7.30;5.03;;;33.00;67.90;;;;;;5050522;28;20455;-70
2023/07/09 12:49:53;;;;;;;7.00;4.60;;;33.00;67.40;;;;;;5050246;28;20204;-71
2023/07/09 12:52:20;;;;;;;7.20;4.60;;;32.90;66.50;;;;;;5050277;28;21043;-71
2023/07/09 12:54:59;;;;;;;5.50;5.00;;;32.90;66.70;;;;;;5047462;28;20515;-70
2023/07/09 12:57:26;;;;;;;4.90;4.50;;;32.80;68.20;;;;;;5049262;28;20451;-70
2023/07/09 12:59:54;;;;;;;8.00;4.93;;;32.80;67.00;;;;;;5049401;28;20938;-70